Time;durP1;ratioP1;P1;durP2;ratioP2;P2;SDS_P1;SDS_P2;PMS_P1;PMS_P2;Temp;Humidity;BMP_temperature;BMP_pressure;BME280_temperature;BME280_humidity;BME280_pressure;Samples;Min_cycle;Max_cycle;Signal;HPM_P1;HPM_P2
2021/06/05 00:00:43;;;;;;;1999.90;999.90;;;8.10;99.90;;;;;;5113579;28;20163;-49
2021/06/05 00:03:11;;;;;;;1999.90;999.90;;;8.10;99.90;;;;;;5113478;28;20621;-48
2021/06/05 00:05:53;;;;;;;1999.90;999.90;;;8.10;99.90;;;;;;5113537;28;20170;-48
2021/06/05 00:08:21;;;;;;;1999.90;999.90;;;8.00;99.90;;;;;;5113456;28;20163;-48
2021/06/05 00:10:52;;;;;;;1999.90;999.90;;;7.90;99.90;;;;;;5113310;28;20178;-47
2021/06/05 00:13:22;;;;;;;1999.90;999.90;;;7.90;99.90;;;;;;5113436;28;20632;-49
2021/06/05 00:15:50;;;;;;;1999.90;999.90;;;7.80;99.90;;;;;;5113494;28;20151;-47
2021/06/05 00:18:17;;;;;;;1999.90;999.90;;;7.70;99.90;;;;;;5113489;28;20175;-48
2021/06/05 00:20:44;;;;;;;1999.90;999.90;;;7.70;99.90;;;;;;5113514;28;20516;-67
2021/06/05 00:23:14;;;;;;;1999.90;999.90;;;7.70;99.90;;;;;;5113157;28;20212;-48
2021/06/05 00:25:42;;;;;;;1999.90;999.90;;;7.70;99.90;;;;;;5113351;28;20167;-67
2021/06/05 00:28:09;;;;;;;1999.90;999.90;;;7.60;99.90;;;;;;5113315;28;20163;-49
2021/06/05 00:30:36;;;;;;;1999.90;999.90;;;7.70;99.90;;;;;;5113317;28;20177;-47
2021/06/05 00:33:05;;;;;;;1999.90;999.90;;;7.70;99.90;;;;;;5113220;28;20194;-48
2021/06/05 00:35:33;;;;;;;1999.90;999.90;;;7.70;99.90;;;;;;5113248;28;20683;-66
2021/06/05 00:38:01;;;;;;;1999.90;999.90;;;7.60;99.90;;;;;;5113258;28;20526;-67
2021/06/05 00:40:32;;;;;;;1999.90;999.90;;;7.70;99.90;;;;;;5113172;28;20169;-66
2021/06/05 00:43:01;;;;;;;1999.90;999.90;;;7.70;99.90;;;;;;5113313;28;20162;-66
2021/06/05 00:45:32;;;;;;;1999.90;999.90;;;7.70;99.90;;;;;;5113125;28;20159;-51
2021/06/05 00:47:59;;;;;;;1999.90;999.90;;;7.70;99.90;;;;;;5113200;28;20162;-47
2021/06/05 00:50:27;;;;;;;1999.90;999.90;;;7.60;99.90;;;;;;5113098;28;20281;-66
2021/06/05 00:52:54;;;;;;;1999.90;999.90;;;7.60;99.90;;;;;;5113086;28;20687;-66
2021/06/05 00:55:24;;;;;;;1999.90;999.90;;;7.50;99.90;;;;;;5113962;28;20170;-51
2021/06/05 00:57:51;;;;;;;1999.90;999.90;;;7.40;99.90;;;;;;5117116;28;20174;-66
2021/06/05 01:00:28;;;;;;;1999.90;999.90;;;7.50;99.90;;;;;;5117164;28;20171;-65
2021/06/05 01:03:00;;;;;;;1999.90;999.90;;;7.40;99.90;;;;;;5117093;28;20159;-65
2021/06/05 01:05:28;;;;;;;1999.90;999.90;;;7.40;99.90;;;;;;5116989;28;20158;-59
2021/06/05 01:08:09;;;;;;;1999.90;999.90;;;7.40;99.90;;;;;;5116838;28;20170;-65
2021/06/05 01:10:41;;;;;;;1999.90;999.90;;;7.30;99.90;;;;;;5116861;28;20638;-53
2021/06/05 01:13:12;;;;;;;1999.90;999.90;;;7.30;99.90;;;;;;5116682;28;20205;-47
2021/06/05 01:15:55;;;;;;;1999.90;999.90;;;7.30;99.90;;;;;;5116643;28;20241;-66
2021/06/05 01:18:31;;;;;;;1999.90;999.90;;;7.20;99.90;;;;;;5116825;28;20640;-67
2021/06/05 01:21:01;;;;;;;1999.90;999.90;;;7.10;99.90;;;;;;5116532;27;20741;-66
2021/06/05 01:23:48;;;;;;;1999.90;999.90;;;7.10;99.90;;;;;;5116302;28;20229;-66
2021/06/05 01:26:33;;;;;;;1999.90;999.90;;;7.20;99.90;;;;;;5102131;28;20185;-67
2021/06/05 01:29:16;;;;;;;1999.90;999.90;;;7.20;99.90;;;;;;5116447;28;20162;-50
2021/06/05 01:31:46;;;;;;;1999.90;999.90;;;7.10;99.90;;;;;;5116744;28;20551;-66
2021/06/05 01:34:14;;;;;;;1999.90;999.90;;;7.10;99.90;;;;;;5116263;28;20202;-65
2021/06/05 01:36:53;;;;;;;1999.90;999.90;;;7.20;99.90;;;;;;5116337;28;20170;-64
2021/06/05 01:39:26;;;;;;;1999.90;999.90;;;7.10;99.90;;;;;;5116362;28;20154;-63
2021/06/05 01:41:55;;;;;;;1999.90;999.90;;;7.10;99.90;;;;;;5116414;28;20158;-67
2021/06/05 01:44:25;;;;;;;1999.90;999.90;;;7.10;99.90;;;;;;5116245;28;20170;-59
2021/06/05 01:46:52;;;;;;;1999.90;999.90;;;7.10;99.90;;;;;;5116286;27;20166;-67
2021/06/05 01:49:21;;;;;;;1999.90;999.90;;;7.10;99.90;;;;;;5116046;28;20252;-64
2021/06/05 01:51:51;;;;;;;1999.90;999.90;;;7.10;99.90;;;;;;5116023;28;20161;-65
2021/06/05 01:54:41;;;;;;;1999.90;999.90;;;7.10;99.90;;;;;;5116212;28;20243;-47
2021/06/05 01:57:12;;;;;;;1999.90;999.90;;;7.10;99.90;;;;;;5115978;28;20147;-58
2021/06/05 01:59:39;;;;;;;1999.90;999.90;;;7.10;99.90;;;;;;5115848;28;20593;-47
2021/06/05 02:02:07;;;;;;;1999.90;999.90;;;7.10;99.90;;;;;;5115701;28;20199;-60
2021/06/05 02:04:35;;;;;;;1999.90;999.90;;;7.20;99.90;;;;;;5115784;28;20173;-66
2021/06/05 02:07:04;;;;;;;1999.90;999.90;;;7.10;99.90;;;;;;5115429;28;20159;-66
2021/06/05 02:09:31;;;;;;;1999.90;999.90;;;7.10;99.90;;;;;;5115670;28;20172;-66
2021/06/05 02:12:15;;;;;;;1999.90;999.90;;;7.10;99.90;;;;;;5115604;28;20243;-50
2021/06/05 02:14:54;;;;;;;1999.90;999.90;;;7.10;99.90;;;;;;5115574;28;20549;-67
2021/06/05 02:17:22;;;;;;;1999.90;999.90;;;7.10;99.90;;;;;;5115608;28;20609;-66
2021/06/05 02:19:56;;;;;;;1999.90;999.90;;;7.10;99.90;;;;;;5115414;28;20239;-66
2021/06/05 02:22:26;;;;;;;1999.90;999.90;;;7.10;99.90;;;;;;5115812;28;20155;-48
2021/06/05 02:24:58;;;;;;;1999.90;999.90;;;6.90;99.90;;;;;;5115567;28;20231;-67
2021/06/05 02:27:28;;;;;;;1999.90;999.90;;;6.90;99.90;;;;;;5115385;28;20177;-67
2021/06/05 02:29:56;;;;;;;1999.90;999.90;;;6.90;99.90;;;;;;5115407;28;20181;-66
2021/06/05 02:32:30;;;;;;;1999.90;999.90;;;6.90;99.90;;;;;;5115172;27;20199;-67
2021/06/05 02:34:57;;;;;;;1999.90;999.90;;;6.80;99.90;;;;;;5115301;28;20201;-64
2021/06/05 02:37:28;;;;;;;1999.90;999.90;;;6.80;99.90;;;;;;5115233;28;20593;-67
2021/06/05 02:40:00;;;;;;;1999.90;999.90;;;6.80;99.90;;;;;;5115266;28;20190;-47
2021/06/05 02:42:27;;;;;;;1999.90;999.90;;;6.70;99.90;;;;;;5115165;28;20171;-64
2021/06/05 02:44:57;;;;;;;1999.90;999.90;;;6.60;99.90;;;;;;5115020;28;20198;-66
2021/06/05 02:47:27;;;;;;;1999.90;999.90;;;6.70;99.90;;;;;;5114811;28;20186;-49
2021/06/05 02:49:54;;;;;;;1999.90;999.90;;;6.60;99.90;;;;;;5114903;28;20191;-66
2021/06/05 02:52:30;;;;;;;1999.90;999.90;;;6.60;99.90;;;;;;5114768;28;20235;-66
2021/06/05 02:55:05;;;;;;;1999.90;999.90;;;6.60;99.90;;;;;;5115008;28;20194;-48
2021/06/05 02:57:32;;;;;;;1999.90;999.90;;;6.50;99.90;;;;;;5114823;28;20241;-47
2021/06/05 02:59:59;;;;;;;1999.90;999.90;;;6.50;99.90;;;;;;5114795;28;20160;-47
2021/06/05 03:02:26;;;;;;;1999.90;999.90;;;6.40;99.90;;;;;;5114693;28;20224;-51
2021/06/05 03:04:53;;;;;;;1999.90;999.90;;;6.50;99.90;;;;;;5114554;28;20498;-66
2021/06/05 03:07:20;;;;;;;1999.90;999.90;;;6.50;99.90;;;;;;5114560;28;20163;-66
2021/06/05 03:09:49;;;;;;;1999.90;999.90;;;6.50;99.90;;;;;;5114325;28;20637;-47
2021/06/05 03:12:16;;;;;;;1999.90;999.90;;;6.50;99.90;;;;;;5114451;28;20182;-54
2021/06/05 03:14:43;;;;;;;1999.90;999.90;;;6.60;99.90;;;;;;5114405;28;20199;-67
2021/06/05 03:17:11;;;;;;;1999.90;999.90;;;6.60;99.90;;;;;;5114359;28;20283;-66
2021/06/05 03:19:39;;;;;;;1999.90;999.90;;;6.50;99.90;;;;;;5113653;28;20184;-48
2021/06/05 03:22:06;;;;;;;1999.90;999.90;;;6.40;99.90;;;;;;5114198;28;20171;-47
2021/06/05 03:24:33;;;;;;;1999.90;999.90;;;6.50;99.90;;;;;;5114215;28;20240;-67
2021/06/05 03:27:01;;;;;;;1999.90;999.90;;;6.40;99.90;;;;;;5114326;28;20176;-48
2021/06/05 03:29:28;;;;;;;1999.90;999.90;;;6.30;99.90;;;;;;5113986;28;20201;-65
2021/06/05 03:31:57;;;;;;;1999.90;999.90;;;6.30;99.90;;;;;;5114072;28;20166;-48
2021/06/05 03:34:24;;;;;;;1999.90;999.90;;;6.40;99.90;;;;;;5113802;28;20203;-65
2021/06/05 03:36:51;;;;;;;1999.90;999.90;;;6.20;99.90;;;;;;5113920;28;20534;-47
2021/06/05 03:39:18;;;;;;;1999.90;999.90;;;6.30;99.90;;;;;;5113915;28;20662;-65
2021/06/05 03:41:46;;;;;;;1999.90;999.90;;;6.20;99.90;;;;;;5113955;28;20166;-64
2021/06/05 03:44:13;;;;;;;1999.90;999.90;;;6.10;99.90;;;;;;5114083;28;20651;-66
2021/06/05 03:46:40;;;;;;;1999.90;999.90;;;6.10;99.90;;;;;;5113794;28;20660;-66
2021/06/05 03:49:09;;;;;;;1999.90;999.90;;;6.10;99.90;;;;;;5113761;28;20176;-47
2021/06/05 03:51:36;;;;;;;1999.90;999.90;;;6.10;99.90;;;;;;5113674;28;20205;-47
2021/06/05 03:54:04;;;;;;;1999.90;999.90;;;6.10;99.90;;;;;;5113720;28;20694;-66
2021/06/05 03:56:31;;;;;;;1999.90;999.90;;;6.00;99.90;;;;;;5113728;28;20174;-47
2021/06/05 03:58:59;;;;;;;1999.90;999.90;;;6.10;99.90;;;;;;5113605;28;20171;-47
2021/06/05 04:01:28;;;;;;;1999.90;999.90;;;6.10;99.90;;;;;;5113521;28;20182;-63
2021/06/05 04:15:14;;;;;;;1999.90;999.90;;;6.10;99.90;;;;;;5110952;27;20637;-47
2021/06/05 04:17:42;;;;;;;1999.90;999.90;;;6.30;99.90;;;;;;5110658;28;20167;-46
2021/06/05 04:20:12;;;;;;;1999.90;999.90;;;6.20;99.90;;;;;;5110562;28;20182;-65
2021/06/05 04:22:39;;;;;;;1999.90;999.90;;;6.10;99.90;;;;;;5110524;28;20205;-58
2021/06/05 04:25:07;;;;;;;1999.90;999.90;;;6.10;99.90;;;;;;5110519;28;20179;-49
2021/06/05 04:27:35;;;;;;;1999.90;999.90;;;6.10;99.90;;;;;;5110498;28;20670;-47
2021/06/05 04:30:01;;;;;;;1999.90;999.90;;;6.10;99.90;;;;;;5110429;28;20180;-46
2021/06/05 04:32:29;;;;;;;1999.90;999.90;;;6.00;99.90;;;;;;5110450;28;20620;-47
2021/06/05 04:34:57;;;;;;;1999.90;999.90;;;6.00;99.90;;;;;;5110461;28;20185;-46
2021/06/05 04:37:24;;;;;;;1999.90;999.90;;;6.10;99.90;;;;;;5110635;28;20182;-48
2021/06/05 04:39:51;;;;;;;1999.90;999.90;;;6.10;99.90;;;;;;5110275;28;20173;-65
2021/06/05 04:42:17;;;;;;;1999.90;999.90;;;6.10;99.90;;;;;;5110098;28;20168;-47
2021/06/05 04:44:44;;;;;;;1999.90;999.90;;;6.00;99.90;;;;;;5110137;28;20178;-66
2021/06/05 04:47:11;;;;;;;1999.90;999.90;;;6.00;99.90;;;;;;5110116;28;20587;-66
2021/06/05 04:49:38;;;;;;;1999.90;999.90;;;5.90;99.90;;;;;;5110087;28;20171;-46
2021/06/05 04:52:06;;;;;;;1999.90;999.90;;;5.90;99.90;;;;;;5110018;28;20194;-55
2021/06/05 04:54:33;;;;;;;1999.90;999.90;;;5.90;99.90;;;;;;5109898;28;20640;-46
2021/06/05 04:57:00;;;;;;;1999.90;999.90;;;6.00;99.90;;;;;;5109905;28;20178;-47
2021/06/05 04:59:27;;;;;;;1999.90;999.90;;;6.00;99.90;;;;;;5109987;28;20203;-66
2021/06/05 05:01:56;;;;;;;1999.90;999.90;;;6.10;99.90;;;;;;5109807;28;20170;-47
2021/06/05 05:04:23;;;;;;;1999.90;999.90;;;6.00;99.90;;;;;;5109679;28;20656;-46
2021/06/05 05:06:50;;;;;;;1999.90;999.90;;;6.00;99.90;;;;;;5109662;28;20178;-46
2021/06/05 05:09:17;;;;;;;1999.90;999.90;;;6.00;99.90;;;;;;5109701;28;20181;-46
2021/06/05 05:11:45;;;;;;;1999.90;999.90;;;5.80;99.90;;;;;;5109613;28;20165;-66
2021/06/05 05:14:13;;;;;;;1999.90;999.90;;;5.80;99.90;;;;;;5106428;28;20319;-46
2021/06/05 05:16:40;;;;;;;1999.90;999.90;;;5.80;99.90;;;;;;5095969;28;20538;-46
2021/06/05 05:19:07;;;;;;;1999.90;999.90;;;5.80;99.90;;;;;;5095874;28;20218;-46
2021/06/05 05:21:35;;;;;;;1999.90;999.90;;;5.70;99.90;;;;;;5095874;28;20168;-46
2021/06/05 05:24:02;;;;;;;1999.90;999.90;;;5.70;99.90;;;;;;5095775;28;20195;-47
2021/06/05 05:26:29;;;;;;;1999.90;999.90;;;5.60;99.90;;;;;;5095876;28;20640;-46
2021/06/05 05:28:57;;;;;;;1999.90;999.90;;;5.60;99.90;;;;;;5095585;28;20675;-46
2021/06/05 05:31:26;;;;;;;1999.90;999.90;;;5.50;99.90;;;;;;5095661;28;20622;-54
2021/06/05 05:33:53;;;;;;;1999.90;999.90;;;5.50;99.90;;;;;;5095625;28;20176;-46
2021/06/05 05:36:25;;;;;;;1999.90;999.90;;;5.50;99.90;;;;;;5095469;28;20199;-46
2021/06/05 05:38:53;;;;;;;1999.90;999.90;;;5.50;99.90;;;;;;5095488;28;20171;-47
2021/06/05 05:41:22;;;;;;;1999.90;999.90;;;5.40;99.90;;;;;;5095388;28;20174;-47
2021/06/05 05:43:49;;;;;;;1999.90;999.90;;;5.40;99.90;;;;;;5095347;28;20207;-48
2021/06/05 05:46:16;;;;;;;1999.90;999.90;;;5.40;99.90;;;;;;5095380;28;20167;-55
2021/06/05 05:48:44;;;;;;;1999.90;999.90;;;5.40;99.90;;;;;;5095337;28;20175;-46
2021/06/05 05:51:14;;;;;;;1999.90;999.90;;;5.40;99.90;;;;;;5095298;28;20220;-62
2021/06/05 05:53:41;;;;;;;1999.90;999.90;;;5.30;99.90;;;;;;5095265;28;20172;-46
2021/06/05 05:56:13;;;;;;;1999.90;999.90;;;5.40;99.90;;;;;;5095235;28;20225;-65
2021/06/05 05:58:44;;;;;;;1999.90;999.90;;;5.40;99.90;;;;;;5095257;28;20523;-46
2021/06/05 06:01:13;;;;;;;1999.90;999.90;;;5.50;99.90;;;;;;5095155;28;20152;-63
2021/06/05 06:03:40;;;;;;;1999.90;999.90;;;5.50;99.90;;;;;;5094960;28;20197;-46
2021/06/05 06:08:53;;;;;;;1999.90;999.90;;;5.60;99.90;;;;;;5189733;22;20634;-52
2021/06/05 06:11:21;;;;;;;1999.90;999.90;;;5.70;99.90;;;;;;5054834;28;20164;-45
2021/06/05 06:13:48;;;;;;;1999.90;999.90;;;5.70;99.90;;;;;;5054574;28;20159;-66
2021/06/05 06:16:17;;;;;;;1999.90;999.90;;;5.70;99.90;;;;;;5054438;28;20166;-67
2021/06/05 06:18:46;;;;;;;1999.90;999.90;;;5.80;99.90;;;;;;5054645;28;20175;-52
2021/06/05 06:21:16;;;;;;;1999.90;999.90;;;5.80;99.90;;;;;;5054297;28;20162;-68
2021/06/05 06:23:43;;;;;;;1999.90;999.90;;;5.90;99.90;;;;;;5054405;28;20203;-66
2021/06/05 06:26:32;;;;;;;1999.90;999.90;;;5.90;99.90;;;;;;5053277;28;20173;-66
2021/06/05 06:29:14;;;;;;;1999.90;999.90;;;5.90;99.90;;;;;;5053971;28;20192;-67
2021/06/05 06:31:42;;;;;;;1999.90;999.90;;;6.00;99.90;;;;;;5054295;28;20164;-65
2021/06/05 06:34:10;;;;;;;1999.90;999.90;;;6.00;99.90;;;;;;5054210;28;20561;-66
2021/06/05 06:36:40;;;;;;;1999.90;999.90;;;6.00;99.90;;;;;;5054130;28;20570;-66
2021/06/05 06:39:07;;;;;;;1999.90;999.90;;;6.10;99.90;;;;;;5054160;28;20172;-66
2021/06/05 06:41:34;;;;;;;1999.90;999.90;;;6.10;99.90;;;;;;5053985;28;20706;-59
2021/06/05 06:44:04;;;;;;;1999.90;999.90;;;6.10;99.90;;;;;;5053951;28;20287;-64
2021/06/05 06:46:37;;;;;;;1999.90;999.90;;;6.20;99.90;;;;;;5054176;28;20507;-63
2021/06/05 06:49:06;;;;;;;1999.90;999.90;;;6.30;99.90;;;;;;5053969;28;20165;-63
2021/06/05 06:51:35;;;;;;;1999.90;999.90;;;6.40;99.90;;;;;;5053880;28;20173;-63
2021/06/05 06:54:04;;;;;;;1999.90;999.90;;;6.60;99.90;;;;;;5053672;28;20205;-63
2021/06/05 06:56:31;;;;;;;1999.90;999.90;;;6.60;99.90;;;;;;5053784;28;20172;-63
2021/06/05 06:58:58;;;;;;;1999.90;999.90;;;6.80;99.90;;;;;;5053712;28;20161;-53
2021/06/05 07:01:26;;;;;;;1999.90;999.90;;;7.00;99.90;;;;;;5053837;28;20627;-64
2021/06/05 07:03:53;;;;;;;1999.90;999.90;;;7.10;99.90;;;;;;5053679;28;20209;-62
2021/06/05 07:06:22;;;;;;;1999.90;999.90;;;7.20;99.90;;;;;;5053634;28;20631;-61
2021/06/05 07:08:49;;;;;;;1999.90;999.90;;;7.30;99.90;;;;;;5053302;28;20247;-63
2021/06/05 07:11:20;;;;;;;1999.90;999.90;;;7.50;99.90;;;;;;5054154;28;20169;-64
2021/06/05 07:13:47;;;;;;;1999.90;999.90;;;7.50;99.90;;;;;;5053765;28;20512;-64
2021/06/05 07:16:16;;;;;;;1999.90;999.90;;;7.70;99.90;;;;;;5053412;28;20180;-49
2021/06/05 07:18:43;;;;;;;1999.90;999.90;;;7.80;99.90;;;;;;5053205;28;20202;-62
2021/06/05 07:21:12;;;;;;;1999.90;999.90;;;7.90;99.90;;;;;;5053295;28;20168;-62
2021/06/05 07:23:41;;;;;;;1999.90;999.90;;;8.00;99.90;;;;;;5053204;28;20212;-60
2021/06/05 07:26:13;;;;;;;1999.90;999.90;;;8.20;99.90;;;;;;5053406;28;20694;-56
2021/06/05 07:28:43;;;;;;;1999.90;999.90;;;8.30;99.90;;;;;;5035599;28;20223;-61
2021/06/05 07:31:14;;;;;;;1999.90;999.90;;;8.50;99.90;;;;;;5053248;28;20604;-61
2021/06/05 07:33:43;;;;;;;1999.90;999.90;;;8.60;99.90;;;;;;5053158;28;20181;-60
2021/06/05 07:36:17;;;;;;;1999.90;999.90;;;8.80;99.90;;;;;;5053050;28;20191;-62
2021/06/05 07:38:44;;;;;;;1999.90;999.90;;;9.00;99.90;;;;;;5052970;28;20158;-59
2021/06/05 07:41:11;;;;;;;1999.90;999.90;;;9.10;99.90;;;;;;5053051;28;20627;-56
2021/06/05 07:43:39;;;;;;;1999.90;999.90;;;9.10;99.90;;;;;;5052877;28;20228;-62
2021/06/05 07:46:06;;;;;;;1999.90;999.90;;;9.20;99.90;;;;;;5052930;28;20666;-62
2021/06/05 07:48:35;;;;;;;1999.90;999.90;;;9.40;99.90;;;;;;5052947;28;20251;-59
2021/06/05 07:51:03;;;;;;;1999.90;999.90;;;9.50;99.90;;;;;;5052772;28;20537;-60
2021/06/05 07:53:30;;;;;;;1999.90;999.90;;;9.70;99.90;;;;;;5052980;28;20192;-62
2021/06/05 07:55:57;;;;;;;1999.90;999.90;;;9.80;99.90;;;;;;5052868;28;20180;-64
2021/06/05 07:58:24;;;;;;;1999.90;999.90;;;10.00;99.90;;;;;;5052871;28;20643;-50
2021/06/05 08:00:51;;;;;;;1999.90;999.90;;;10.20;99.90;;;;;;5052799;28;20165;-50
2021/06/05 08:03:18;;;;;;;1999.90;999.90;;;10.40;99.90;;;;;;5052580;28;20203;-48
2021/06/05 08:05:45;;;;;;;1999.90;999.90;;;10.50;99.90;;;;;;5052559;28;20157;-63
2021/06/05 08:08:14;;;;;;;1999.90;999.90;;;10.50;99.90;;;;;;5052375;28;20216;-62
2021/06/05 08:10:43;;;;;;;1999.90;999.90;;;10.80;99.90;;;;;;5052726;28;20165;-61
2021/06/05 08:13:11;;;;;;;1999.90;999.90;;;10.90;99.90;;;;;;5052603;28;20638;-61
2021/06/05 08:15:41;;;;;;;1999.90;999.90;;;11.10;99.90;;;;;;5052644;28;20164;-62
2021/06/05 08:18:09;;;;;;;1999.90;999.90;;;11.40;99.90;;;;;;5052607;28;20248;-63
2021/06/05 08:20:49;;;;;;;1999.90;999.90;;;11.40;99.90;;;;;;5052573;28;20169;-62
2021/06/05 08:23:19;;;;;;;1999.90;999.90;;;11.60;99.90;;;;;;5052262;28;20213;-61
2021/06/05 08:25:48;;;;;;;1999.90;999.90;;;11.60;99.90;;;;;;5052172;28;20172;-50
2021/06/05 08:28:16;;;;;;;1999.90;999.90;;;11.80;99.90;;;;;;5051991;28;20177;-52
2021/06/05 08:30:47;;;;;;;1999.90;999.90;;;12.30;99.80;;;;;;5052202;28;20170;-62
2021/06/05 08:33:15;;;;;;;1999.90;999.90;;;12.50;99.90;;;;;;5052214;28;20157;-50
2021/06/05 08:35:42;;;;;;;1999.90;999.90;;;12.50;99.00;;;;;;5052326;28;20180;-50
2021/06/05 08:38:12;;;;;;;1999.90;999.90;;;12.60;98.20;;;;;;5052113;28;20165;-50
2021/06/05 08:40:42;;;;;;;1999.90;999.90;;;12.70;99.20;;;;;;5052176;28;20628;-60
2021/06/05 08:43:11;;;;;;;1999.90;999.90;;;13.00;98.20;;;;;;5052120;28;20197;-68
2021/06/05 08:45:39;;;;;;;1999.90;999.90;;;13.00;96.30;;;;;;5052015;28;20190;-52
2021/06/05 08:48:13;;;;;;;1999.90;999.90;;;13.20;97.30;;;;;;5052074;28;20169;-60
2021/06/05 08:50:41;;;;;;;1999.90;999.90;;;13.50;98.50;;;;;;5054408;28;20333;-66
2021/06/05 08:53:26;;;;;;;1999.90;999.90;;;13.60;99.90;;;;;;5037792;28;20177;-65
2021/06/05 08:55:57;;;;;;;1999.90;999.90;;;13.80;99.00;;;;;;5055805;28;20231;-62
2021/06/05 08:58:42;;;;;;;1999.90;999.90;;;14.00;95.70;;;;;;5056014;28;20517;-64
2021/06/05 09:01:17;;;;;;;1999.90;999.90;;;14.10;95.90;;;;;;5055910;28;20169;-65
2021/06/05 09:03:47;;;;;;;1999.90;999.90;;;14.30;97.70;;;;;;5055869;28;20204;-67
2021/06/05 09:06:18;;;;;;;1999.90;999.90;;;14.50;98.90;;;;;;5055704;28;20193;-68
2021/06/05 09:08:46;;;;;;;1999.90;999.90;;;14.60;97.90;;;;;;5055662;28;20244;-68
2021/06/05 09:11:15;;;;;;;1999.90;999.90;;;14.80;96.10;;;;;;5055598;28;20184;-67
2021/06/05 09:13:43;;;;;;;1999.90;999.90;;;15.00;91.90;;;;;;5055520;28;20188;-64
2021/06/05 09:16:25;;;;;;;1999.90;999.90;;;15.10;91.60;;;;;;5055529;28;20211;-65
2021/06/05 09:19:03;;;;;;;1999.90;999.90;;;15.20;91.00;;;;;;5055342;28;20162;-68
2021/06/05 09:21:34;;;;;;;1999.90;999.90;;;15.40;91.90;;;;;;5055619;28;20614;-67
2021/06/05 09:24:30;;;;;;;1999.90;999.90;;;15.60;86.20;;;;;;5037262;28;20254;-67
2021/06/05 09:27:17;;;;;;;1999.90;999.90;;;15.70;85.80;;;;;;5054827;28;20627;-69
2021/06/05 09:30:02;;;;;;;1999.90;999.90;;;16.00;83.20;;;;;;5055200;28;20180;-68
2021/06/05 09:32:57;;;;;;;1999.90;999.90;;;16.20;75.90;;;;;;5054946;28;20207;-69
2021/06/05 09:35:33;;;;;;;1999.90;999.90;;;16.30;79.20;;;;;;5044583;28;20185;-58
2021/06/05 09:38:33;;;;;;;1999.90;999.90;;;16.50;90.40;;;;;;5055158;28;20180;-55
2021/06/05 09:41:21;;;;;;;1999.90;999.90;;;16.70;77.50;;;;;;5054747;28;20635;-64
2021/06/05 09:43:50;;;;;;;1999.90;999.90;;;16.90;77.70;;;;;;5054813;28;20268;-66
2021/06/05 09:46:31;;;;;;;1999.90;999.90;;;17.10;76.00;;;;;;5054858;28;20173;-66
2021/06/05 09:49:19;;;;;;;1999.90;999.90;;;17.40;75.40;;;;;;5054761;28;20495;-60
2021/06/05 09:52:07;;;;;;;1999.90;999.90;;;17.60;68.10;;;;;;5054808;28;20193;-70
2021/06/05 09:54:39;;;;;;;1999.90;999.90;;;17.70;65.60;;;;;;5054682;28;20161;-63
2021/06/05 09:57:23;;;;;;;1999.90;999.90;;;17.80;66.00;;;;;;5055014;28;20188;-69
2021/06/05 10:00:11;;;;;;;1999.90;999.90;;;18.00;66.20;;;;;;5054665;28;20571;-70
2021/06/05 10:02:42;;;;;;;1999.90;999.90;;;18.20;63.20;;;;;;5054788;28;20164;-68
2021/06/05 10:05:29;;;;;;;1999.90;999.90;;;18.30;62.10;;;;;;5054682;28;20265;-66
2021/06/05 10:08:19;;;;;;;1999.90;999.90;;;18.30;59.10;;;;;;5054114;28;20232;-66
2021/06/05 10:10:47;;;;;;;1999.90;999.90;;;18.50;55.90;;;;;;5054448;28;20657;-60
2021/06/05 10:13:26;;;;;;;1999.90;999.90;;;18.70;59.10;;;;;;5054456;28;20535;-51
2021/06/05 10:16:16;;;;;;;1999.90;999.90;;;18.80;56.70;;;;;;5054243;28;20169;-69
2021/06/05 10:19:18;;;;;;;1999.90;999.90;;;19.00;54.60;;;;;;5054119;28;20166;-59
2021/06/05 10:21:48;;;;;;;1999.90;999.90;;;19.10;55.80;;;;;;5041250;28;20192;-69
2021/06/05 10:24:26;;;;;;;1999.90;999.90;;;19.10;54.50;;;;;;5054318;28;20205;-67
2021/06/05 10:26:54;;;;;;;1999.90;999.90;;;19.20;52.60;;;;;;5054215;28;20161;-68
2021/06/05 10:29:47;;;;;;;1999.90;999.90;;;19.40;53.20;;;;;;5054114;28;20169;-66
2021/06/05 10:32:20;;;;;;;1999.90;999.90;;;19.60;50.70;;;;;;5054035;28;20192;-54
2021/06/05 10:35:02;;;;;;;1999.90;999.90;;;19.70;51.40;;;;;;5053889;28;20169;-67
2021/06/05 10:37:32;;;;;;;1999.90;999.90;;;19.90;51.60;;;;;;5053971;28;20161;-70
2021/06/05 10:40:05;;;;;;;1999.90;999.90;;;19.90;50.40;;;;;;5054241;28;20188;-67
2021/06/05 10:42:41;;;;;;;1999.90;999.90;;;20.00;52.20;;;;;;5053534;28;20169;-54
2021/06/05 10:45:14;;;;;;;1999.90;999.90;;;20.20;48.40;;;;;;5053620;28;20161;-65
2021/06/05 10:48:12;;;;;;;1999.90;999.90;;;20.30;48.40;;;;;;5053637;28;20184;-61
2021/06/05 10:50:44;;;;;;;1999.90;999.90;;;20.40;48.70;;;;;;5053575;28;20162;-67
2021/06/05 10:53:35;;;;;;;1999.90;999.90;;;20.50;48.60;;;;;;5054070;28;20169;-66
2021/06/05 10:56:18;;;;;;;1999.90;999.90;;;20.60;47.60;;;;;;5053570;28;20160;-69
2021/06/05 10:58:51;;;;;;;1999.90;999.90;;;20.70;46.30;;;;;;5053534;28;20226;-66
2021/06/05 11:01:30;;;;;;;1999.90;999.90;;;20.80;48.00;;;;;;5053343;28;20303;-67
2021/06/05 11:04:00;;;;;;;1999.90;999.90;;;20.90;49.60;;;;;;5053316;28;20631;-66
2021/06/05 11:06:50;;;;;;;1999.90;999.90;;;21.00;51.20;;;;;;5053345;28;20154;-67
2021/06/05 11:09:32;;;;;;;1999.90;999.90;;;21.10;52.60;;;;;;5005292;28;20232;-52
2021/06/05 11:12:03;;;;;;;1999.90;999.90;;;21.20;50.70;;;;;;5033013;28;20296;-59
2021/06/05 11:14:36;;;;;;;1999.90;999.90;;;21.20;50.90;;;;;;5033211;28;20592;-65
2021/06/05 11:17:21;;;;;;;1999.90;999.90;;;21.40;50.00;;;;;;5033091;28;20209;-60
2021/06/05 11:20:12;;;;;;;1999.90;999.90;;;21.50;50.70;;;;;;5033869;28;20257;-55
2021/06/05 11:22:59;;;;;;;1999.90;999.90;;;21.60;52.40;;;;;;5033197;28;20177;-69
2021/06/05 11:25:40;;;;;;;1999.90;999.90;;;21.80;51.40;;;;;;5033368;28;20208;-68
2021/06/05 11:28:42;;;;;;;1999.90;999.90;;;21.90;48.50;;;;;;5033050;28;20165;-67
2021/06/05 11:31:46;;;;;;;1999.90;999.90;;;21.90;48.30;;;;;;5033275;28;20157;-64
2021/06/05 11:34:36;;;;;;;1999.90;999.90;;;22.00;48.10;;;;;;5033034;28;20259;-70
2021/06/05 11:37:15;;;;;;;1999.90;999.90;;;22.00;46.70;;;;;;5033269;28;20173;-69
2021/06/05 11:40:08;;;;;;;1999.90;999.90;;;22.10;46.40;;;;;;5032893;28;20177;-67
2021/06/05 11:42:50;;;;;;;1999.90;999.90;;;22.20;43.60;;;;;;5032778;28;20521;-70
2021/06/05 11:45:26;;;;;;;1999.90;999.90;;;22.20;44.70;;;;;;5032977;28;20170;-61
2021/06/05 11:47:53;;;;;;;1999.90;999.90;;;22.20;44.20;;;;;;5032756;28;20178;-60
2021/06/05 11:50:31;;;;;;;1999.90;999.90;;;22.20;43.20;;;;;;5032920;28;20211;-71
2021/06/05 11:53:28;;;;;;;1999.90;999.90;;;22.30;44.10;;;;;;5032812;28;20157;-67
2021/06/05 11:56:04;;;;;;;1999.90;999.90;;;22.40;43.60;;;;;;5032946;28;20162;-69
2021/06/05 11:58:33;;;;;;;1999.90;999.90;;;22.40;43.30;;;;;;5032696;28;20177;-67
2021/06/05 12:13:46;;;;;;;1999.90;999.90;;;22.60;41.50;;;;;;5176095;27;483994;-61
2021/06/05 12:16:20;;;;;;;1999.90;999.90;;;22.90;40.80;;;;;;5172452;27;20185;-67
2021/06/05 12:18:49;;;;;;;1999.90;999.90;;;22.90;39.80;;;;;;5172564;27;20168;-66
2021/06/05 12:21:27;;;;;;;1999.90;999.90;;;22.90;40.10;;;;;;5172345;27;20580;-65
2021/06/05 12:23:54;;;;;;;1999.90;999.90;;;22.90;39.30;;;;;;5172347;27;20158;-63
2021/06/05 12:26:25;;;;;;;1999.90;999.90;;;22.90;39.00;;;;;;5173052;27;20641;-52
2021/06/05 12:29:08;;;;;;;1999.90;999.90;;;22.90;37.30;;;;;;5172434;27;20161;-53
2021/06/05 12:31:41;;;;;;;1999.90;999.90;;;22.90;37.70;;;;;;5172360;27;20153;-66
2021/06/05 12:34:12;;;;;;;1999.90;999.90;;;22.90;39.10;;;;;;5172045;27;20167;-69
2021/06/05 12:36:45;;;;;;;1999.90;999.90;;;22.90;39.60;;;;;;5171952;27;20161;-59
2021/06/05 12:39:23;;;;;;;1999.90;999.90;;;22.90;36.40;;;;;;5172021;27;20166;-50
2021/06/05 12:41:51;;;;;;;1999.90;999.90;;;22.80;39.10;;;;;;5171900;27;20193;-65
2021/06/05 12:44:26;;;;;;;1999.90;999.90;;;22.80;36.80;;;;;;5171937;27;20240;-66
2021/06/05 12:46:53;;;;;;;1999.90;999.90;;;22.70;37.50;;;;;;5171742;27;20686;-68
2021/06/05 12:49:26;;;;;;;1999.90;999.90;;;22.70;38.90;;;;;;5171870;27;20165;-65
2021/06/05 12:51:59;;;;;;;1999.90;999.90;;;22.70;39.60;;;;;;5153083;27;20233;-68
2021/06/05 12:54:32;;;;;;;1999.90;999.90;;;22.70;41.80;;;;;;5171680;27;20161;-64